Time;durP1;ratioP1;P1;durP2;ratioP2;P2;SDS_P1;SDS_P2;PMS_P1;PMS_P2;Temp;Humidity;BMP_temperature;BMP_pressure;BME280_temperature;BME280_humidity;BME280_pressure;Samples;Min_cycle;Max_cycle;Signal;HPM_P1;HPM_P2
2023/01/04 00:01:41;;;;;;;9.75;5.65;;;;;;;4.55;85.85;101733.72;5136598;27;20501;-72
2023/01/04 00:04:44;;;;;;;12.50;4.97;;;;;;;4.49;86.43;101737.19;5136788;27;20084;-72
2023/01/04 00:07:50;;;;;;;7.28;5.10;;;;;;;4.64;86.46;101733.63;5136813;27;20551;-72
2023/01/04 00:11:01;;;;;;;12.20;6.53;;;;;;;4.61;86.21;101731.91;5137025;27;20042;-72
2023/01/04 00:14:04;;;;;;;8.88;6.60;;;;;;;4.68;86.45;101732.72;5136863;27;20092;-72
2023/01/04 00:17:07;;;;;;;9.70;6.38;;;;;;;4.76;86.01;101730.94;5136597;27;20046;-72
2023/01/04 00:20:10;;;;;;;;;;;;;;;4.62;86.67;101725.84;5137195;27;20509;-71
2023/01/04 00:23:14;;;;;;;8.57;4.68;;;;;;;4.74;86.24;101729.22;5136898;27;19980;-71
2023/01/04 00:26:21;;;;;;;7.70;4.50;;;;;;;4.73;86.26;101720.59;5136636;27;20401;-71
2023/01/04 00:29:24;;;;;;;9.52;4.28;;;;;;;4.64;87.39;101718.09;5136563;27;20045;-72
2023/01/04 00:32:28;;;;;;;8.95;4.43;;;;;;;4.74;87.09;101706.75;5123283;27;20088;-71
2023/01/04 00:35:32;;;;;;;9.40;3.67;;;;;;;4.61;86.79;101707.75;5136329;27;20042;-71
2023/01/04 00:38:37;;;;;;;8.18;4.13;;;;;;;4.63;87.21;101695.66;5136171;27;20046;-71
2023/01/04 00:41:51;;;;;;;7.18;4.43;;;;;;;4.59;87.76;101688.75;5136041;27;20084;-71
2023/01/04 00:44:57;;;;;;;8.65;4.53;;;;;;;4.64;87.10;101684.41;5136109;27;20050;-71
2023/01/04 00:48:03;;;;;;;5.85;4.10;;;;;;;4.70;87.28;101674.00;5135943;27;20069;-71
2023/01/04 00:51:07;;;;;;;7.38;5.10;;;;;;;4.77;87.03;101661.84;5135930;27;20579;-72
2023/01/04 00:54:13;;;;;;;10.18;4.90;;;;;;;4.75;86.89;101661.84;5123407;27;20046;-72
2023/01/04 00:57:19;;;;;;;10.00;4.85;;;;;;;4.74;87.45;101661.88;5135917;27;20536;-71
2023/01/04 01:00:22;;;;;;;5.18;3.50;;;;;;;4.79;87.12;101645.41;5135503;27;20096;-71
2023/01/04 01:03:25;;;;;;;;;;;;;;;4.69;87.66;101638.59;5136181;27;20074;-71
2023/01/04 01:06:31;;;;;;;8.73;4.20;;;;;;;4.78;87.29;101633.31;5135463;27;19937;-71
2023/01/04 01:09:34;;;;;;;7.35;3.33;;;;;;;4.79;87.45;101619.50;5135737;27;20069;-71
2023/01/04 01:12:37;;;;;;;7.10;4.45;;;;;;;4.81;87.35;101628.09;5135579;27;20061;-71
2023/01/04 01:15:40;;;;;;;7.20;4.03;;;;;;;4.78;87.36;101620.34;5135770;27;20081;-71
2023/01/04 01:18:44;;;;;;;;;;;;;;;4.82;87.60;101619.47;5135989;27;20053;-72
2023/01/04 01:21:47;;;;;;;7.40;4.32;;;;;;;4.92;87.37;101593.44;5135298;27;20302;-72
2023/01/04 01:24:54;;;;;;;11.30;4.00;;;;;;;4.93;87.54;101590.81;5135298;27;20103;-72
2023/01/04 01:31:56;;;;;;;5.00;3.45;;;;;;;4.79;88.28;101585.81;5122451;27;20050;-72
2023/01/04 01:35:00;;;;;;;9.55;3.15;;;;;;;4.77;88.45;101579.78;5135308;27;20107;-72
2023/01/04 01:38:03;;;;;;;;;;;;;;;4.93;88.38;101582.19;5135391;27;20045;-72
2023/01/04 01:41:10;;;;;;;7.18;3.97;;;;;;;4.96;87.66;101574.38;5134986;27;19922;-71
2023/01/04 01:44:42;;;;;;;8.38;3.33;;;;;;;4.93;88.02;101580.44;5134151;27;20042;-71
2023/01/04 01:47:48;;;;;;;7.43;3.88;;;;;;;4.79;89.23;101580.63;5134988;27;20045;-71
2023/01/04 01:50:55;;;;;;;5.47;3.13;;;;;;;4.77;90.14;101579.78;5134805;27;20397;-71
2023/01/04 01:54:08;;;;;;;5.38;3.05;;;;;;;4.94;89.65;101573.53;5134561;27;20042;-71
2023/01/04 01:57:18;;;;;;;5.90;3.42;;;;;;;4.81;90.31;101565.03;5134742;27;20150;-71
2023/01/04 02:00:21;;;;;;;6.93;3.88;;;;;;;4.89;89.90;101545.94;5131969;27;20077;-71
2023/01/04 02:03:34;;;;;;;;;;;;;;;4.82;90.75;101556.41;5133960;27;20034;-71
2023/01/04 02:06:44;;;;;;;8.48;3.65;;;;;;;4.66;91.91;101555.75;5134574;27;19918;-71
2023/01/04 02:09:48;;;;;;;4.82;3.13;;;;;;;4.77;92.03;101545.22;5134520;27;20046;-71
2023/01/04 02:12:51;;;;;;;6.57;3.47;;;;;;;4.83;90.74;101543.44;5134406;27;20046;-71
2023/01/04 02:16:33;;;;;;;7.72;3.38;;;;;;;4.86;91.21;101545.13;5134452;27;20037;-71
2023/01/04 02:19:58;;;;;;;6.60;2.95;;;;;;;4.90;91.99;101544.22;5134738;27;20076;-71
2023/01/04 02:23:23;;;;;;;4.00;2.88;;;;;;;5.10;91.27;101542.19;5132827;27;20183;-71
2023/01/04 02:26:57;;;;;;;5.63;3.05;;;;;;;5.22;90.60;101530.81;5134063;27;20126;-71
2023/01/04 02:30:25;;;;;;;6.88;2.80;;;;;;;5.16;91.25;101530.91;5116897;27;20095;-71
2023/01/04 02:33:34;;;;;;;9.07;3.95;;;;;;;5.36;90.45;101518.53;5121322;27;20497;-72
2023/01/04 02:37:29;;;;;;;6.15;3.05;;;;;;;5.39;90.66;101515.00;5133896;27;20100;-71
2023/01/04 02:40:51;;;;;;;7.10;2.88;;;;;;;5.43;90.89;101514.09;5134310;27;20046;-70
2023/01/04 02:50:59;;;;;;;10.30;2.92;;;;;;;5.88;91.10;101505.59;5133735;27;20474;-70
2023/01/04 02:54:24;;;;;;;9.73;4.38;;;;;;;5.99;89.37;101499.34;5133975;28;20405;-70
2023/01/04 02:57:54;;;;;;;14.32;3.72;;;;;;;6.17;90.68;101497.31;5133680;27;20054;-70
2023/01/04 03:08:37;;;;;;;10.40;4.35;;;;;;;6.53;87.89;101477.56;5133753;28;20103;-70
2023/01/04 03:15:23;;;;;;;11.98;4.55;;;;;;;6.73;88.42;101457.22;5133463;28;20092;-70
2023/01/04 03:18:57;;;;;;;9.15;4.07;;;;;;;6.65;90.42;101453.91;5133880;28;20084;-70
2023/01/04 03:22:02;;;;;;;6.68;3.35;;;;;;;6.75;90.09;101439.84;5120965;28;20064;-70
2023/01/04 03:35:38;;;;;;;10.13;4.40;;;;;;;6.59;93.68;101425.47;5133285;28;20070;-70
2023/01/04 03:49:44;;;;;;;8.25;5.13;;;;;;;6.87;92.35;101396.28;5133277;28;20041;-70
2023/01/04 03:52:50;;;;;;;10.90;4.35;;;;;;;6.85;90.88;101392.84;5133457;28;20517;-70
2023/01/04 03:55:56;;;;;;;9.20;4.10;;;;;;;6.60;95.04;101384.75;5133150;28;20562;-70
2023/01/04 03:58:59;;;;;;;5.72;3.55;;;;;;;6.65;92.50;101378.56;5133200;28;20042;-70
2023/01/04 04:02:06;;;;;;;8.38;3.50;;;;;;;6.78;88.76;101375.69;5133161;28;20095;-70
2023/01/04 04:08:38;;;;;;;8.73;3.65;;;;;;;6.84;90.45;101371.19;5135404;27;20160;-70
2023/01/04 04:11:41;;;;;;;;;;;;;;;6.88;91.26;101371.97;5137163;27;20064;-70
2023/01/04 04:14:44;;;;;;;10.00;3.47;;;;;;;6.84;91.06;101355.59;5136811;27;19918;-70
2023/01/04 04:17:48;;;;;;;9.73;3.65;;;;;;;6.94;88.64;101345.84;5136678;27;20046;-70
2023/01/04 04:21:00;;;;;;;;;;;;;;;6.94;88.38;101338.88;5137209;27;20050;-70
2023/01/04 04:24:04;;;;;;;6.15;3.08;;;;;;;7.12;88.73;101340.19;5136455;27;20037;-70
2023/01/04 04:27:07;;;;;;;7.72;2.80;;;;;;;7.16;87.00;101344.41;5136492;27;20050;-70
2023/01/04 04:30:12;;;;;;;7.45;3.28;;;;;;;7.17;86.00;101343.50;5136428;27;20501;-71
2023/01/04 04:33:15;;;;;;;;;;;;;;;7.27;84.66;101343.28;5136946;27;20111;-70
2023/01/04 04:36:18;;;;;;;7.97;3.15;;;;;;;7.42;83.24;101341.13;5136428;27;20302;-70
2023/01/04 04:39:21;;;;;;;7.00;3.00;;;;;;;7.44;83.62;101331.56;5136284;27;20088;-70
2023/01/04 04:42:25;;;;;;;7.97;3.33;;;;;;;7.43;82.63;101324.66;5123289;27;20042;-71
2023/01/04 04:45:28;;;;;;;7.45;3.05;;;;;;;7.46;82.89;101329.75;5136157;27;20091;-70
2023/01/04 04:48:31;;;;;;;5.95;2.55;;;;;;;7.51;82.42;101316.63;5136116;27;20413;-71
2023/01/04 04:51:35;;;;;;;7.53;3.00;;;;;;;7.55;82.76;101320.84;5123300;27;20057;-71
2023/01/04 04:54:39;;;;;;;8.23;3.42;;;;;;;7.51;82.87;101324.44;5123298;27;20042;-71
2023/01/04 04:57:42;;;;;;;6.45;2.60;;;;;;;7.59;81.76;101327.66;5135891;27;20092;-71
2023/01/04 05:00:45;;;;;;;;;;;;;;;7.61;82.12;101327.66;5136091;27;20108;-72
2023/01/04 05:03:48;;;;;;;7.67;2.50;;;;;;;7.72;81.54;101329.94;5136063;27;19917;-71
2023/01/04 05:06:52;;;;;;;7.90;3.78;;;;;;;7.63;82.50;101326.72;5136218;27;20042;-77
2023/01/04 05:09:55;;;;;;;7.60;2.63;;;;;;;7.63;81.71;101318.91;5135720;27;20042;-72
2023/01/04 05:12:58;;;;;;;6.00;2.70;;;;;;;7.57;82.19;101306.06;5135960;27;20180;-72
2023/01/04 05:16:02;;;;;;;;;;;;;;;7.72;81.47;101314.31;5135698;27;20046;-72
2023/01/04 05:19:05;;;;;;;;;;;;;;;7.71;81.38;101307.44;5135345;27;19956;-71
2023/01/04 05:22:08;;;;;;;6.30;2.72;;;;;;;7.76;81.41;101311.63;5135250;27;19922;-72
2023/01/04 05:25:12;;;;;;;;;;;;;;;7.64;82.04;101302.38;5135957;27;20172;-72
2023/01/04 05:28:15;;;;;;;5.72;2.22;;;;;;;7.71;81.62;101287.44;5122921;27;20369;-71
2023/01/04 05:31:18;;;;;;;6.40;2.55;;;;;;;7.81;80.89;101282.84;5135273;27;20084;-71
2023/01/04 05:34:21;;;;;;;7.20;2.40;;;;;;;7.81;81.00;101286.28;5135175;27;20042;-70
2023/01/04 05:37:25;;;;;;;9.18;2.83;;;;;;;7.81;81.69;101299.31;5135060;27;20091;-70
2023/01/04 05:40:28;;;;;;;;;;;;;;;7.85;81.73;101300.09;5135259;27;20092;-72
2023/01/04 05:43:31;;;;;;;5.75;2.45;;;;;;;7.80;82.10;101299.38;5134586;27;19918;-72
2023/01/04 05:46:35;;;;;;;;;;;;;;;7.83;82.38;101296.66;5134156;27;20405;-73
2023/01/04 05:49:38;;;;;;;7.90;2.60;;;;;;;7.89;82.27;101286.09;5134924;27;19957;-71
2023/01/04 05:52:41;;;;;;;;;;;;;;;7.83;83.14;101283.66;5133783;27;20373;-72
2023/01/04 05:55:47;;;;;;;3.55;1.77;;;;;;;7.84;83.32;101288.81;5132765;27;20286;-71
2023/01/04 05:58:50;;;;;;;4.65;1.95;;;;;;;7.82;83.91;101289.75;5132642;27;20086;-71
2023/01/04 06:01:53;;;;;;;3.38;1.50;;;;;;;7.88;82.98;101272.22;5134251;27;20042;-71
2023/01/04 06:04:59;;;;;;;5.03;1.77;;;;;;;7.81;83.51;101272.41;5134471;27;20158;-71
2023/01/04 06:08:02;;;;;;;6.30;1.70;;;;;;;7.84;83.89;101269.72;5134653;27;20064;-71
2023/01/04 06:11:05;;;;;;;7.80;1.90;;;;;;;7.93;83.20;101267.72;5134536;27;20034;-72
2023/01/04 06:14:09;;;;;;;4.70;1.63;;;;;;;7.91;83.21;101245.22;5134735;27;20126;-71
2023/01/04 06:17:12;;;;;;;;;;;;;;;8.00;83.36;101236.28;5134819;27;20652;-71
2023/01/04 06:20:16;;;;;;;6.43;1.70;;;;;;;7.95;83.02;101226.00;5133904;27;19922;-72
2023/01/04 06:23:19;;;;;;;;;;;;;;;8.00;83.36;101215.44;5134580;27;20099;-71
2023/01/04 06:26:26;;;;;;;3.47;1.40;;;;;;;8.01;83.69;101233.63;5134331;27;19956;-71
2023/01/04 06:29:30;;;;;;;4.35;1.50;;;;;;;8.11;82.89;101237.66;5132919;27;20046;-71
2023/01/04 06:32:33;;;;;;;3.30;1.10;;;;;;;8.06;83.47;101231.72;5131897;27;20060;-71
2023/01/04 06:35:36;;;;;;;;;;;;;;;8.13;83.40;101243.66;5132090;27;20049;-71
2023/01/04 06:38:40;;;;;;;2.95;1.17;;;;;;;8.14;83.03;101227.16;5134214;27;19953;-71
2023/01/04 06:41:43;;;;;;;;;;;;;;;8.20;83.11;101213.09;5134227;27;20513;-71
2023/01/04 06:44:46;;;;;;;3.77;1.10;;;;;;;8.22;83.06;101200.84;5134043;27;19995;-71
2023/01/04 06:47:49;;;;;;;4.85;1.20;;;;;;;8.25;82.95;101199.91;5134147;27;20085;-71
2023/01/04 06:50:52;;;;;;;;;;;;;;;8.31;82.94;101194.50;5134254;27;20038;-71
2023/01/04 06:53:55;;;;;;;3.63;1.10;;;;;;;8.28;82.85;101200.66;5133889;27;19918;-71
2023/01/04 06:56:59;;;;;;;;;;;;;;;8.31;83.57;101197.94;5134111;27;20046;-71
2023/01/04 07:00:03;;;;;;;2.30;0.98;;;;;;;8.33;83.09;101177.06;5133569;27;20336;-73
2023/01/04 07:03:07;;;;;;;4.78;1.38;;;;;;;8.32;83.15;101164.94;5133780;27;20525;-71
2023/01/04 07:06:10;;;;;;;;;;;;;;;8.31;83.34;101173.66;5132471;28;20073;-71
2023/01/04 07:09:14;;;;;;;2.63;1.00;;;;;;;8.36;83.02;101163.94;5133037;28;20453;-71
2023/01/04 07:12:17;;;;;;;2.70;0.82;;;;;;;8.34;83.24;101174.41;5133883;28;20057;-71
2023/01/04 07:15:20;;;;;;;2.42;0.82;;;;;;;8.36;83.32;101182.19;5133658;28;20076;-70
2023/01/04 07:18:23;;;;;;;;;;;;;;;8.35;83.34;101183.06;5133994;28;20091;-71
2023/01/04 07:21:28;;;;;;;2.38;0.63;;;;;;;8.40;82.48;101189.03;5133581;28;19961;-71
2023/01/04 07:24:32;;;;;;;2.15;0.60;;;;;;;8.40;83.18;101203.81;5133524;28;20484;-71
2023/01/04 07:27:35;;;;;;;1.88;0.55;;;;;;;8.50;82.19;101200.00;5133618;28;20038;-71
2023/01/04 07:30:38;;;;;;;;;;;;;;;8.51;82.11;101189.50;5133965;28;20076;-70
2023/01/04 07:33:42;;;;;;;1.58;0.50;;;;;;;8.50;82.42;101198.25;5133465;28;19957;-71
2023/01/04 07:36:46;;;;;;;1.20;0.30;;;;;;;8.48;82.28;101205.25;5133429;28;20414;-71
2023/01/04 07:39:50;;;;;;;2.90;0.60;;;;;;;8.42;82.66;101208.06;5133369;28;20042;-72
2023/01/04 07:42:58;;;;;;;2.33;0.52;;;;;;;8.49;82.67;101206.97;5134749;27;20042;-72
2023/01/04 07:46:01;;;;;;;1.23;0.40;;;;;;;8.46;83.21;101207.06;5137358;27;20077;-72
2023/01/04 07:49:18;;;;;;;;;;;;;;;8.54;82.87;101202.44;5137540;27;20084;-71
2023/01/04 07:52:21;;;;;;;2.05;0.60;;;;;;;8.48;82.81;101192.22;5137157;27;20000;-71
2023/01/04 07:55:25;;;;;;;2.67;0.80;;;;;;;8.53;82.95;101185.13;5135580;27;20050;-71
2023/01/04 07:58:38;;;;;;;5.60;0.75;;;;;;;8.51;82.59;101188.66;5135778;27;20080;-70
2023/01/04 08:01:41;;;;;;;2.78;0.55;;;;;;;8.51;82.94;101180.84;5135622;27;20401;-72
2023/01/04 08:04:45;;;;;;;1.10;0.35;;;;;;;8.59;82.35;101178.84;5135805;27;20074;-71
2023/01/04 08:07:48;;;;;;;;;;;;;;;8.57;82.78;101181.50;5136400;27;20441;-73
2023/01/04 08:10:55;;;;;;;2.67;0.40;;;;;;;8.56;82.68;101187.63;5136934;27;20377;-72
2023/01/04 08:13:58;;;;;;;1.92;0.55;;;;;;;8.57;83.31;101197.13;5136697;27;20046;-71
2023/01/04 08:17:02;;;;;;;16.77;1.35;;;;;;;8.70;84.57;101214.97;5136909;27;20054;-70
2023/01/04 08:20:09;;;;;;;2.83;0.60;;;;;;;8.82;83.38;101202.38;5136741;27;20615;-71
2023/01/04 08:23:12;;;;;;;2.85;0.50;;;;;;;8.90;82.20;101209.91;5136914;27;20049;-74
2023/01/04 08:26:16;;;;;;;2.95;0.50;;;;;;;9.07;82.62;101212.81;5136485;27;20508;-72
2023/01/04 08:29:20;;;;;;;1.25;0.43;;;;;;;9.01;81.83;101222.63;5136500;27;20043;-73
2023/01/04 08:32:23;;;;;;;;;;;;;;;9.02;81.96;101219.09;5136931;27;20041;-73
2023/01/04 08:35:51;;;;;;;1.67;0.55;;;;;;;9.06;81.20;101205.03;5136492;27;19936;-73
2023/01/04 08:39:00;;;;;;;2.45;0.40;;;;;;;9.05;81.21;101204.19;5136450;27;20038;-72
2023/01/04 08:42:03;;;;;;;1.30;0.38;;;;;;;9.04;81.20;101196.44;5136271;27;20095;-70
2023/01/04 08:45:07;;;;;;;1.75;0.30;;;;;;;8.94;81.14;101190.69;5136292;27;20505;-71
2023/01/04 08:48:11;;;;;;;1.25;0.30;;;;;;;8.72;82.40;101187.97;5123443;27;20088;-70
2023/01/04 08:51:15;;;;;;;;;;;;;;;8.78;82.29;101171.25;5136528;27;20042;-70
2023/01/04 08:54:19;;;;;;;1.35;0.50;;;;;;;8.75;82.83;101177.41;5135696;27;20319;-67
2023/01/04 08:57:22;;;;;;;2.08;0.40;;;;;;;8.90;82.25;101177.78;5134364;27;20168;-67
2023/01/04 09:00:26;;;;;;;1.40;0.30;;;;;;;8.87;82.67;101178.78;5135665;27;20612;-67
2023/01/04 09:03:32;;;;;;;2.25;0.52;;;;;;;8.96;83.68;101170.59;5135755;27;20127;-75
2023/01/04 09:06:37;;;;;;;2.35;0.45;;;;;;;9.02;82.29;101175.59;5134283;27;20049;-71
2023/01/04 09:09:40;;;;;;;2.25;0.60;;;;;;;8.84;83.20;101169.28;5133666;27;20049;-74
2023/01/04 09:12:46;;;;;;;2.03;0.50;;;;;;;8.89;83.16;101170.88;5133603;27;20134;-72
2023/01/04 09:15:50;;;;;;;1.25;0.57;;;;;;;8.94;83.00;101164.59;5134100;27;20074;-71
2023/01/04 09:18:57;;;;;;;1.52;0.40;;;;;;;8.90;83.02;101167.34;5135867;27;20116;-73
2023/01/04 09:22:00;;;;;;;19.52;9.00;;;;;;;8.85;83.50;101167.53;5135432;27;20062;-71
2023/01/04 09:25:04;;;;;;;13.77;6.97;;;;;;;8.88;83.83;101157.00;5134882;27;20081;-71
2023/01/04 09:28:07;;;;;;;27.73;4.32;;;;;;;8.99;83.56;101156.59;5133950;27;20489;-71
2023/01/04 09:31:12;;;;;;;;;;;;;;;8.97;83.27;101159.28;5134601;27;20070;-71
2023/01/04 09:34:15;;;;;;;1.67;0.60;;;;;;;9.03;83.44;101172.09;5134437;27;19918;-71
2023/01/04 09:37:18;;;;;;;;;;;;;;;9.11;83.01;101169.22;5135229;27;20056;-71
2023/01/04 09:40:30;;;;;;;3.28;0.55;;;;;;;9.05;83.27;101178.09;5134918;27;20331;-70
2023/01/04 09:43:44;;;;;;;1.50;0.45;;;;;;;9.09;83.62;101173.63;5135091;27;20130;-70
2023/01/04 09:46:57;;;;;;;2.55;0.40;;;;;;;9.13;83.58;101171.78;5135016;27;20134;-71
2023/01/04 09:50:41;;;;;;;2.20;0.45;;;;;;;9.35;83.83;101164.00;5134891;27;20130;-71
2023/01/04 09:53:57;;;;;;;1.27;0.55;;;;;;;9.41;82.69;101151.59;5135075;27;20050;-71
2023/01/04 09:57:02;;;;;;;2.10;0.50;;;;;;;9.34;82.52;101147.50;5134636;27;20050;-71
2023/01/04 10:00:17;;;;;;;2.33;0.60;;;;;;;9.35;83.07;101150.94;5134361;27;20108;-71
2023/01/04 10:03:23;;;;;;;0.95;0.30;;;;;;;9.38;83.11;101138.66;5134658;27;20131;-71
2023/01/04 10:06:27;;;;;;;2.83;0.70;;;;;;;9.45;82.88;101129.69;5134026;27;20100;-71
2023/01/04 10:09:30;;;;;;;1.55;0.40;;;;;;;9.48;82.69;101132.19;5132825;27;20050;-71
2023/01/04 10:12:41;;;;;;;;;;;;;;;9.57;82.34;101122.28;5122099;27;20038;-71
2023/01/04 10:16:13;;;;;;;1.70;0.50;;;;;;;9.57;82.51;101127.50;5134128;27;19972;-72
2023/01/04 10:19:42;;;;;;;2.38;0.30;;;;;;;9.70;82.08;101124.38;5134420;27;20057;-71
2023/01/04 10:23:12;;;;;;;3.13;0.93;;;;;;;9.74;82.25;101115.50;5134408;27;20469;-75
2023/01/04 10:26:25;;;;;;;1.50;0.60;;;;;;;9.76;82.07;101118.03;5134245;27;20402;-70
2023/01/04 10:29:52;;;;;;;0.55;0.20;;;;;;;9.76;81.90;101110.19;5134525;27;20072;-71
2023/01/04 10:33:12;;;;;;;1.65;0.40;;;;;;;9.81;81.81;101099.59;5134144;27;20176;-71
2023/01/04 10:36:25;;;;;;;3.92;2.25;;;;;;;9.92;81.37;101098.25;5133973;27;20089;-74
2023/01/04 10:39:34;;;;;;;1.80;0.60;;;;;;;9.90;81.46;101094.84;5133948;27;20069;-73
2023/01/04 10:43:06;;;;;;;5.55;4.07;;;;;;;9.87;81.78;101094.13;5133896;27;20088;-72
2023/01/04 10:46:16;;;;;;;4.68;2.00;;;;;;;9.95;81.92;101092.03;5109712;28;20556;-72
2023/01/04 10:49:26;;;;;;;2.15;1.17;;;;;;;9.95;82.07;101092.88;5110600;28;20066;-73
2023/01/04 10:52:44;;;;;;;1.00;0.30;;;;;;;10.06;81.05;101081.16;5112738;28;20046;-72
2023/01/04 10:55:58;;;;;;;1.38;0.60;;;;;;;10.04;81.70;101077.75;5111985;28;20097;-76
2023/01/04 10:59:26;;;;;;;1.83;0.70;;;;;;;10.04;81.79;101075.13;5113153;28;20046;-74
2023/01/04 11:02:43;;;;;;;1.58;0.50;;;;;;;10.11;81.65;101071.34;5113425;28;20055;-73
2023/01/04 11:05:53;;;;;;;1.13;0.20;;;;;;;10.18;80.83;101064.97;5113261;28;20506;-72
2023/01/04 11:09:14;;;;;;;2.03;0.77;;;;;;;10.17;81.48;101065.88;5112897;28;20046;-72
2023/01/04 11:12:22;;;;;;;0.73;0.10;;;;;;;10.22;80.87;101053.47;5113257;28;20058;-73
2023/01/04 11:15:35;;;;;;;1.33;0.43;;;;;;;10.23;80.69;101053.38;5113057;28;20039;-75
2023/01/04 11:18:41;;;;;;;0.95;0.20;;;;;;;10.38;80.18;101058.94;5117248;28;20442;-74
2023/01/04 11:21:53;;;;;;;1.52;0.45;;;;;;;10.39;80.42;101043.16;5104423;28;20042;-74
2023/01/04 11:25:07;;;;;;;6.60;5.93;;;;;;;10.41;80.84;101053.56;5117097;28;20050;-75
2023/01/04 11:28:20;;;;;;;3.42;1.50;;;;;;;10.39;80.80;101035.31;5117145;28;20078;-75
2023/01/04 11:31:31;;;;;;;2.25;0.98;;;;;;;10.46;80.22;101015.88;5117087;28;20101;-74
2023/01/04 11:34:51;;;;;;;1.83;0.70;;;;;;;10.48;80.90;101010.53;5131538;27;20101;-74
2023/01/04 11:38:09;;;;;;;10.02;8.10;;;;;;;10.45;80.36;101014.13;5137100;27;20320;-74
2023/01/04 11:41:15;;;;;;;4.80;2.53;;;;;;;10.50;81.22;101015.69;5134159;27;20091;-74
2023/01/04 11:44:18;;;;;;;2.55;0.85;;;;;;;10.47;80.95;101017.53;5137384;27;20130;-74
2023/01/04 11:47:27;;;;;;;6.90;3.08;;;;;;;10.47;81.24;101016.69;5136808;27;20402;-74
2023/01/04 11:50:41;;;;;;;7.05;3.55;;;;;;;10.48;81.22;101008.78;5137013;27;20089;-73
2023/01/04 11:53:45;;;;;;;2.80;1.00;;;;;;;10.60;81.03;101003.94;5136899;27;20463;-73
2023/01/04 11:57:16;;;;;;;2.67;1.02;;;;;;;10.47;82.35;100998.41;5136988;27;20038;-73
2023/01/04 12:00:22;;;;;;;2.85;1.15;;;;;;;10.50;82.18;100993.03;5136861;27;20090;-73
2023/01/04 12:03:31;;;;;;;;;;;;;;;10.51;81.95;100991.28;5137468;27;20451;-74
2023/01/04 12:06:43;;;;;;;4.68;2.47;;;;;;;10.47;83.03;100990.56;5136934;27;20293;-73
2023/01/04 12:09:46;;;;;;;13.43;9.77;;;;;;;10.51;83.79;100983.44;5136715;27;20093;-74
2023/01/04 12:12:49;;;;;;;;;;;;;;;10.48;84.05;100990.47;5137229;27;20176;-73
2023/01/04 12:16:21;;;;;;;3.22;0.90;;;;;;;10.44;83.97;100991.53;5135983;27;20420;-72
2023/01/04 12:19:25;;;;;;;10.43;7.50;;;;;;;10.42;83.94;100972.44;5136613;27;20053;-71
2023/01/04 12:22:31;;;;;;;;;;;;;;;10.43;84.05;100963.72;5136890;27;20065;-72
2023/01/04 12:25:44;;;;;;;6.18;4.70;;;;;;;10.50;83.93;100968.63;5136740;27;19960;-72
2023/01/04 12:29:23;;;;;;;3.42;1.98;;;;;;;10.51;83.13;100959.88;5123253;27;20042;-72
2023/01/04 12:32:27;;;;;;;4.35;1.95;;;;;;;10.58;82.57;100966.53;5136377;27;20134;-72
2023/01/04 12:35:57;;;;;;;2.25;0.73;;;;;;;10.67;81.91;100955.66;5136473;27;20092;-72
2023/01/04 12:39:12;;;;;;;3.72;1.15;;;;;;;10.71;81.94;100947.59;5134876;27;20087;-72
2023/01/04 12:42:23;;;;;;;2.60;1.10;;;;;;;10.70;81.95;100935.44;5115139;28;20096;-72
2023/01/04 12:45:28;;;;;;;3.38;1.20;;;;;;;10.71;81.95;100944.13;5135340;27;20441;-72
2023/01/04 12:52:09;;;;;;;2.83;0.60;;;;;;;10.83;80.46;100925.25;5134373;27;20512;-72
2023/01/04 12:55:31;;;;;;;1.88;0.50;;;;;;;10.87;80.42;100926.78;5134581;27;20046;-73
2023/01/04 12:58:39;;;;;;;2.60;1.23;;;;;;;10.93;79.77;100910.81;5113224;28;20112;-72
2023/01/04 13:02:14;;;;;;;3.00;1.40;;;;;;;10.94;80.10;100912.53;5119328;27;20065;-73
2023/01/04 13:05:18;;;;;;;4.53;2.60;;;;;;;10.94;80.30;100909.91;5133874;27;20041;-73
2023/01/04 13:08:25;;;;;;;8.50;5.10;;;;;;;10.92;80.09;100916.97;5134146;27;20099;-72
2023/01/04 13:11:56;;;;;;;2.85;1.00;;;;;;;10.97;80.02;100924.59;5131622;27;20578;-72
2023/01/04 13:15:10;;;;;;;11.75;7.53;;;;;;;11.00;79.59;100921.00;5133788;27;20081;-73
2023/01/04 13:18:33;;;;;;;;;;;;;;;11.01;79.63;100925.28;5133258;27;20119;-72
2023/01/04 13:21:45;;;;;;;3.97;1.33;;;;;;;11.10;78.76;100919.63;5134057;27;20274;-72
2023/01/04 13:24:50;;;;;;;12.20;7.60;;;;;;;11.09;79.16;100899.63;5135142;27;20133;-72
2023/01/04 13:27:59;;;;;;;2.15;0.95;;;;;;;11.08;79.06;100887.47;5133990;27;20512;-73
2023/01/04 13:31:03;;;;;;;3.40;1.65;;;;;;;11.11;78.97;100901.25;5122680;27;20046;-73
2023/01/04 13:34:23;;;;;;;6.97;4.05;;;;;;;11.14;79.00;100915.97;5133775;27;20085;-72
2023/01/04 13:37:29;;;;;;;7.18;4.03;;;;;;;11.12;79.11;100889.84;5135047;27;20050;-73
2023/01/04 13:40:34;;;;;;;4.28;1.98;;;;;;;11.19;78.76;100890.38;5132624;27;20099;-73
2023/01/04 13:44:10;;;;;;;5.20;2.65;;;;;;;11.17;78.71;100869.53;5134718;27;20092;-72
2023/01/04 13:47:15;;;;;;;5.10;2.42;;;;;;;11.21;78.72;100877.25;5131664;27;20070;-73
2023/01/04 13:50:36;;;;;;;3.67;1.80;;;;;;;11.21;78.42;100878.09;5133867;27;20049;-72
2023/01/04 13:53:41;;;;;;;4.22;2.80;;;;;;;11.25;78.48;100863.06;5121757;27;20058;-72
2023/01/04 13:56:46;;;;;;;4.25;1.80;;;;;;;11.20;78.95;100878.16;5134339;27;20087;-72
2023/01/04 13:59:52;;;;;;;2.65;1.40;;;;;;;11.23;78.86;100844.84;5134154;27;20088;-72
2023/01/04 14:03:30;;;;;;;10.45;6.35;;;;;;;11.25;78.89;100853.44;5134354;27;20039;-72
2023/01/04 14:06:43;;;;;;;1.48;0.65;;;;;;;11.28;78.31;100861.16;5133976;27;20096;-72
2023/01/04 14:09:52;;;;;;;4.03;1.87;;;;;;;11.23;79.15;100873.63;5134576;27;20050;-72
2023/01/04 14:13:03;;;;;;;1.55;0.50;;;;;;;11.31;78.66;100854.91;5134393;27;20058;-72
2023/01/04 14:16:19;;;;;;;1.73;0.35;;;;;;;11.29;79.08;100839.28;5121492;27;20090;-72
2023/01/04 14:19:46;;;;;;;6.10;3.78;;;;;;;11.33;79.14;100840.84;5133988;27;20042;-71
2023/01/04 14:22:57;;;;;;;4.78;1.95;;;;;;;11.71;77.67;100851.13;5134058;27;20470;-70
2023/01/04 14:26:01;;;;;;;7.70;3.85;;;;;;;11.84;78.29;100836.50;5134063;27;20180;-70
2023/01/04 14:29:30;;;;;;;6.93;3.85;;;;;;;11.96;76.95;100834.97;5134235;27;20406;-70
2023/01/04 14:32:33;;;;;;;10.65;4.38;;;;;;;11.96;76.58;100845.47;5133887;27;20532;-69
2023/01/04 14:35:37;;;;;;;14.68;5.82;;;;;;;11.56;77.19;100867.63;5133739;27;20050;-71
2023/01/04 14:38:54;;;;;;;8.77;5.60;;;;;;;11.35;78.25;100827.66;5133656;27;20092;-72
2023/01/04 14:42:03;;;;;;;8.00;5.00;;;;;;;11.29;78.59;100826.19;5133534;27;20086;-71
2023/01/04 14:45:12;;;;;;;6.75;4.28;;;;;;;11.27;78.98;100830.66;5117296;27;20050;-72
2023/01/04 14:48:17;;;;;;;2.45;1.13;;;;;;;11.20;79.19;100833.66;5131367;27;20520;-77
2023/01/04 14:51:24;;;;;;;5.07;3.95;;;;;;;11.21;79.31;100824.91;5120071;27;20042;-73
2023/01/04 14:54:30;;;;;;;2.92;1.73;;;;;;;11.21;79.42;100824.91;5133143;27;20099;-73
2023/01/04 14:57:37;;;;;;;2.95;1.58;;;;;;;11.22;79.09;100831.81;5132415;27;20168;-73
2023/01/04 15:00:43;;;;;;;3.13;1.52;;;;;;;11.20;79.33;100834.53;5132215;27;20574;-73
2023/01/04 15:03:49;;;;;;;1.90;1.00;;;;;;;11.17;79.41;100835.50;5133208;27;20418;-72
2023/01/04 15:06:59;;;;;;;1.67;0.70;;;;;;;11.16;79.50;100839.03;5133585;28;20071;-72
2023/01/04 15:10:05;;;;;;;1.80;0.70;;;;;;;11.16;79.60;100831.19;5133516;28;20049;-71
2023/01/04 15:13:10;;;;;;;0.98;0.30;;;;;;;11.16;79.44;100843.44;5133345;28;20401;-71
2023/01/04 15:16:16;;;;;;;2.05;0.80;;;;;;;11.15;79.72;100849.59;5111509;28;20514;-71
2023/01/04 15:19:19;;;;;;;6.20;3.50;;;;;;;11.19;79.58;100843.28;5112014;28;20111;-74
2023/01/04 15:22:22;;;;;;;;;;;;;;;11.24;79.58;100846.53;5113346;28;20043;-72
2023/01/04 15:25:28;;;;;;;6.82;4.88;;;;;;;11.22;79.47;100843.13;5113345;28;19937;-73
2023/01/04 15:28:32;;;;;;;8.50;6.13;;;;;;;11.21;79.65;100840.59;5112954;28;20038;-75
2023/01/04 15:31:36;;;;;;;8.45;6.63;;;;;;;11.19;79.77;100827.56;5114153;28;20159;-73
2023/01/04 15:34:40;;;;;;;2.40;1.33;;;;;;;11.22;79.75;100827.41;5112927;28;20488;-76
2023/01/04 15:37:46;;;;;;;2.03;0.63;;;;;;;11.17;79.91;100834.69;5112995;28;20119;-76
2023/01/04 15:40:50;;;;;;;4.88;1.20;;;;;;;11.21;80.13;100830.97;5100347;28;20042;-81
2023/01/04 15:43:53;;;;;;;4.22;1.67;;;;;;;11.17;80.15;100827.66;5112853;28;20069;-76
2023/01/04 15:46:58;;;;;;;6.53;2.88;;;;;;;11.16;80.18;100818.09;5111648;28;20093;-78